createdAt,value
2023-01-26T00:01:37.442Z,6.90
2023-01-26T00:04:05.001Z,6.80
2023-01-26T00:06:32.533Z,6.90
2023-01-26T00:09:00.029Z,6.80
2023-01-26T00:11:29.440Z,6.90
2023-01-26T00:13:59.138Z,6.90
2023-01-26T00:16:27.895Z,6.90
2023-01-26T00:18:55.372Z,7.00
2023-01-26T00:21:24.604Z,6.90
2023-01-26T00:23:52.899Z,6.90
2023-01-26T00:26:23.119Z,6.90
2023-01-26T00:28:51.853Z,6.90
2023-01-26T00:31:22.683Z,6.90
2023-01-26T00:33:51.222Z,6.90
2023-01-26T00:36:18.832Z,6.80
2023-01-26T00:38:46.718Z,6.80
2023-01-26T00:41:34.800Z,7.00
2023-01-26T00:44:02.381Z,6.80
2023-01-26T00:46:29.943Z,6.90
2023-01-26T00:48:57.649Z,6.80
2023-01-26T00:51:25.139Z,6.90
2023-01-26T00:53:52.584Z,6.80
2023-01-26T00:56:20.112Z,6.90
2023-01-26T00:58:47.669Z,6.90
2023-01-26T01:01:15.127Z,7.00
2023-01-26T01:03:43.424Z,6.90
2023-01-26T01:06:10.954Z,7.00
2023-01-26T01:08:38.475Z,7.00
2023-01-26T01:11:09.914Z,7.00
2023-01-26T01:13:37.884Z,6.90
2023-01-26T01:16:10.856Z,7.00
2023-01-26T01:18:38.447Z,7.10
2023-01-26T01:21:10.980Z,7.10
2023-01-26T01:23:38.648Z,6.90
2023-01-26T01:26:07.047Z,7.00
2023-01-26T01:28:35.523Z,7.00
2023-01-26T01:31:08.168Z,7.00
2023-01-26T01:33:36.986Z,6.90
2023-01-26T01:36:07.723Z,7.00
2023-01-26T01:38:35.587Z,7.00
2023-01-26T01:41:03.797Z,7.00
2023-01-26T01:43:31.315Z,7.00
2023-01-26T01:46:01.587Z,6.90
2023-01-26T01:48:41.876Z,7.00
2023-01-26T01:51:16.320Z,6.90
2023-01-26T01:53:51.029Z,7.00
2023-01-26T01:56:24.471Z,6.90
2023-01-26T01:58:56.365Z,6.90
2023-01-26T02:01:24.986Z,6.80
2023-01-26T02:03:56.042Z,6.80
2023-01-26T02:06:27.047Z,6.80
2023-01-26T02:09:04.512Z,6.80
2023-01-26T02:11:51.922Z,6.80
2023-01-26T02:14:19.407Z,6.70
2023-01-26T02:16:46.818Z,6.70
2023-01-26T02:19:41.419Z,6.60
2023-01-26T02:22:41.686Z,6.70
2023-01-26T02:25:35.981Z,6.70
2023-01-26T02:28:03.883Z,6.80
2023-01-26T02:30:32.357Z,6.70
2023-01-26T02:33:00.184Z,6.50
2023-01-26T02:35:27.889Z,6.70
2023-01-26T02:37:55.308Z,6.60
2023-01-26T02:40:33.308Z,6.60
2023-01-26T02:43:02.550Z,6.50
2023-01-26T02:45:31.843Z,6.50
2023-01-26T02:48:02.552Z,6.40
2023-01-26T02:50:30.456Z,6.40
2023-01-26T02:52:57.957Z,6.50
2023-01-26T02:55:26.377Z,6.50
2023-01-26T02:58:04.970Z,6.50
2023-01-26T03:00:42.007Z,6.40
2023-01-26T03:03:14.701Z,6.50
2023-01-26T03:05:42.707Z,6.30
2023-01-26T03:08:10.254Z,6.30
2023-01-26T03:10:38.943Z,6.30
2023-01-26T03:13:07.566Z,6.30
2023-01-26T03:15:42.935Z,6.30
2023-01-26T03:18:35.794Z,6.30
2023-01-26T03:21:24.860Z,6.20
2023-01-26T03:24:11.260Z,6.20
2023-01-26T03:26:57.554Z,6.20
2023-01-26T03:29:26.707Z,6.20
2023-01-26T03:31:59.009Z,6.30
2023-01-26T03:34:27.564Z,6.30
2023-01-26T03:36:55.027Z,6.20
2023-01-26T03:39:41.055Z,6.20
2023-01-26T03:42:27.542Z,6.30
2023-01-26T03:45:13.765Z,6.40
2023-01-26T03:48:02.438Z,6.20
2023-01-26T03:50:49.255Z,6.20
2023-01-26T03:53:40.883Z,6.10
2023-01-26T03:56:24.687Z,6.20
2023-01-26T03:58:57.530Z,6.20
2023-01-26T04:01:28.438Z,6.40
2023-01-26T04:04:17.775Z,6.30
2023-01-26T04:07:07.434Z,6.20
2023-01-26T04:09:39.479Z,6.40
2023-01-26T04:12:10.162Z,6.20
2023-01-26T04:15:03.819Z,6.30
2023-01-26T04:17:50.593Z,6.30
2023-01-26T04:20:36.789Z,6.20
2023-01-26T04:23:04.465Z,6.30
2023-01-26T04:25:31.982Z,6.30
2023-01-26T04:27:59.548Z,6.30
2023-01-26T04:30:27.083Z,6.40
2023-01-26T04:32:54.694Z,6.20
2023-01-26T04:35:22.155Z,6.30
2023-01-26T04:37:49.694Z,6.20
2023-01-26T04:40:17.844Z,6.10
2023-01-26T04:42:46.839Z,6.10
2023-01-26T04:45:14.280Z,6.20
2023-01-26T04:47:42.675Z,6.20
2023-01-26T04:50:11.031Z,6.30
2023-01-26T04:52:38.632Z,6.10
2023-01-26T04:55:06.416Z,6.30
2023-01-26T04:57:35.202Z,6.20
2023-01-26T05:00:04.929Z,6.20
2023-01-26T05:02:34.528Z,6.10
2023-01-26T05:05:01.985Z,6.40
2023-01-26T05:07:29.952Z,6.30
2023-01-26T05:09:58.021Z,6.30
2023-01-26T05:12:45.709Z,6.30
2023-01-26T05:15:44.747Z,6.40
2023-01-26T05:18:25.131Z,6.50
2023-01-26T05:21:16.287Z,6.40
2023-01-26T05:23:48.773Z,6.40
2023-01-26T05:26:36.533Z,6.30
2023-01-26T05:29:07.647Z,6.30
2023-01-26T05:31:35.343Z,6.30
2023-01-26T05:34:02.842Z,6.40
2023-01-26T05:36:31.523Z,6.30
2023-01-26T05:38:58.984Z,6.30
2023-01-26T05:41:27.768Z,6.30
2023-01-26T05:44:12.227Z,6.30
2023-01-26T05:46:45.923Z,6.30
2023-01-26T05:49:13.596Z,6.30
2023-01-26T05:51:41.906Z,6.30
2023-01-26T05:54:09.496Z,6.20
2023-01-26T05:56:37.225Z,6.30
2023-01-26T05:59:06.549Z,6.30
2023-01-26T06:01:34.564Z,6.30
2023-01-26T06:04:06.358Z,6.40
2023-01-26T06:06:46.032Z,6.30
2023-01-26T06:09:22.897Z,6.30
2023-01-26T06:12:13.967Z,6.20
2023-01-26T06:14:56.567Z,6.20
2023-01-26T06:17:27.380Z,6.20
2023-01-26T06:20:00.486Z,6.30
2023-01-26T06:22:28.252Z,6.20
2023-01-26T06:24:56.645Z,6.20
2023-01-26T06:27:24.190Z,6.20
2023-01-26T06:29:52.965Z,6.20
2023-01-26T06:32:20.862Z,6.10
2023-01-26T06:34:53.434Z,6.20
2023-01-26T06:37:23.796Z,6.20
2023-01-26T06:39:52.797Z,6.10
2023-01-26T06:42:20.381Z,6.10
2023-01-26T06:44:47.903Z,6.00
2023-01-26T06:47:15.387Z,6.00
2023-01-26T06:49:44.668Z,6.00
2023-01-26T06:52:32.144Z,6.00
2023-01-26T06:55:29.737Z,6.00
2023-01-26T06:58:15.753Z,5.90
2023-01-26T07:00:57.179Z,6.00
2023-01-26T07:03:33.967Z,6.00
2023-01-26T07:06:01.562Z,6.10
2023-01-26T07:08:29.024Z,5.90
2023-01-26T07:10:56.602Z,5.80
2023-01-26T07:13:24.045Z,5.70
2023-01-26T07:15:51.549Z,5.70
2023-01-26T07:18:19.007Z,5.70
2023-01-26T07:20:46.546Z,5.70
2023-01-26T07:23:13.949Z,5.60
2023-01-26T07:25:44.198Z,5.50
2023-01-26T07:28:11.755Z,5.50
2023-01-26T07:30:39.215Z,5.40
2023-01-26T07:33:06.754Z,5.50
2023-01-26T07:35:34.178Z,5.40
2023-01-26T07:38:04.445Z,5.40
2023-01-26T07:40:32.016Z,5.40
2023-01-26T07:43:00.365Z,5.40
2023-01-26T07:45:51.532Z,5.30
2023-01-26T07:48:20.465Z,5.30
2023-01-26T07:50:48.587Z,5.30
2023-01-26T07:53:23.086Z,5.40
2023-01-26T07:55:50.718Z,5.40
2023-01-26T07:58:18.700Z,5.30
2023-01-26T08:00:49.211Z,5.30
2023-01-26T08:03:16.780Z,5.20
2023-01-26T08:05:44.463Z,5.10
2023-01-26T08:08:12.319Z,5.20
2023-01-26T08:10:39.758Z,5.20
2023-01-26T08:13:07.270Z,5.30
2023-01-26T08:15:34.754Z,5.30
2023-01-26T08:18:04.471Z,5.30
2023-01-26T08:20:32.037Z,5.30
2023-01-26T08:23:00.524Z,5.30
2023-01-26T08:25:28.176Z,5.30
2023-01-26T08:27:55.987Z,5.30
2023-01-26T08:30:23.477Z,5.30
2023-01-26T08:32:50.904Z,5.40
2023-01-26T08:35:18.401Z,5.40
2023-01-26T08:37:45.833Z,5.30
2023-01-26T08:40:13.918Z,5.40
2023-01-26T08:42:41.562Z,5.30
2023-01-26T08:45:09.848Z,5.40
2023-01-26T08:47:37.402Z,5.40
2023-01-26T08:50:05.195Z,5.30
2023-01-26T08:52:32.717Z,5.30
2023-01-26T08:55:01.039Z,5.40
2023-01-26T08:57:28.606Z,5.30
2023-01-26T08:59:56.117Z,5.30
2023-01-26T09:02:23.704Z,5.30
2023-01-26T09:04:51.242Z,5.40
2023-01-26T09:07:19.610Z,5.40
2023-01-26T09:09:47.104Z,5.50
2023-01-26T09:12:14.655Z,5.50
2023-01-26T09:14:42.191Z,5.60
2023-01-26T09:17:09.790Z,5.50
2023-01-26T09:19:37.366Z,5.50
2023-01-26T09:22:05.022Z,5.50
2023-01-26T09:24:32.703Z,5.50
2023-01-26T09:27:00.721Z,5.50
2023-01-26T09:29:28.199Z,5.50
2023-01-26T09:31:55.796Z,5.50
2023-01-26T09:34:25.329Z,5.50
2023-01-26T09:36:52.886Z,5.50
2023-01-26T09:39:20.402Z,5.50
2023-01-26T09:41:51.180Z,5.50
2023-01-26T09:44:26.084Z,5.50
2023-01-26T09:46:53.604Z,5.50
2023-01-26T09:49:45.739Z,5.50
2023-01-26T09:52:39.537Z,5.40
2023-01-26T09:55:16.819Z,5.50
2023-01-26T09:57:47.648Z,5.50
2023-01-26T10:00:21.715Z,5.50
2023-01-26T10:03:11.266Z,5.60
2023-01-26T10:05:51.653Z,5.60
2023-01-26T10:08:39.554Z,5.70
2023-01-26T10:11:53.101Z,5.80
2023-01-26T10:14:30.665Z,5.80
2023-01-26T10:16:59.769Z,5.80
2023-01-26T10:20:17.955Z,5.90
2023-01-26T10:22:48.449Z,6.00
2023-01-26T10:25:20.159Z,6.00
2023-01-26T10:27:47.635Z,6.00
2023-01-26T10:30:17.270Z,5.90
2023-01-26T10:32:47.981Z,6.00
2023-01-26T10:35:19.946Z,6.00
2023-01-26T10:37:49.101Z,6.00
2023-01-26T10:40:17.491Z,5.90
2023-01-26T10:42:59.332Z,5.90
2023-01-26T10:45:32.509Z,6.00
2023-01-26T10:48:04.835Z,5.90
2023-01-26T10:50:32.402Z,6.00
2023-01-26T10:53:02.996Z,6.10
2023-01-26T10:55:33.021Z,6.00
2023-01-26T10:58:01.602Z,6.00
2023-01-26T11:00:32.925Z,5.80
2023-01-26T11:03:18.297Z,5.80
2023-01-26T11:05:48.260Z,5.70
2023-01-26T11:08:36.486Z,5.90
2023-01-26T11:11:08.121Z,5.80
2023-01-26T11:13:35.989Z,5.90
2023-01-26T11:16:22.300Z,5.90
2023-01-26T11:18:52.626Z,5.90
2023-01-26T11:21:31.885Z,5.80
2023-01-26T11:24:05.699Z,5.80
2023-01-26T11:27:09.968Z,5.90
2023-01-26T11:30:19.351Z,5.80
2023-01-26T11:33:01.767Z,5.80
2023-01-26T11:35:39.667Z,5.90
2023-01-26T11:38:19.040Z,6.00
2023-01-26T11:41:10.146Z,6.00
2023-01-26T11:43:46.222Z,6.10
2023-01-26T11:46:29.161Z,5.90
2023-01-26T11:49:32.737Z,6.20
2023-01-26T11:52:18.374Z,6.30
2023-01-26T11:55:00.933Z,6.40
2023-01-26T11:57:48.837Z,6.40
2023-01-26T12:00:31.249Z,6.50
2023-01-26T12:03:04.067Z,6.50
2023-01-26T12:05:46.377Z,6.50
2023-01-26T12:08:29.378Z,6.50
2023-01-26T12:11:22.376Z,6.40
2023-01-26T12:14:18.802Z,6.60
2023-01-26T12:17:18.109Z,6.60
2023-01-26T12:20:00.213Z,6.60
2023-01-26T12:22:34.438Z,6.70
2023-01-26T12:25:23.698Z,6.50
2023-01-26T12:28:19.657Z,6.60
2023-01-26T12:30:53.052Z,6.60
2023-01-26T12:33:20.692Z,6.70
2023-01-26T12:35:57.412Z,6.60
2023-01-26T12:38:42.248Z,6.60
2023-01-26T12:41:22.816Z,6.60
2023-01-26T12:44:15.129Z,6.60
2023-01-26T12:46:52.091Z,6.60
2023-01-26T12:49:32.343Z,6.80
2023-01-26T12:52:12.354Z,6.70
2023-01-26T12:54:49.332Z,6.80
2023-01-26T12:57:21.668Z,7.00
2023-01-26T12:59:49.759Z,6.70
2023-01-26T13:02:29.110Z,6.90
2023-01-26T13:05:01.575Z,6.70
2023-01-26T13:07:36.662Z,6.80
2023-01-26T13:10:19.472Z,6.70
2023-01-26T13:12:51.435Z,6.80
2023-01-26T13:15:21.595Z,6.90
2023-01-26T13:17:52.788Z,6.90
2023-01-26T13:20:25.999Z,6.90
2023-01-26T13:22:55.034Z,6.90
2023-01-26T13:25:31.533Z,6.70
2023-01-26T13:28:12.361Z,6.80
2023-01-26T13:30:46.383Z,6.90
2023-01-26T13:33:16.444Z,6.80
2023-01-26T13:35:46.319Z,6.80
2023-01-26T13:38:29.284Z,7.00
2023-01-26T13:40:56.889Z,6.90
2023-01-26T13:43:35.777Z,6.90
2023-01-26T13:46:09.178Z,7.00
2023-01-26T13:48:41.655Z,7.00
2023-01-26T13:51:13.316Z,7.00
2023-01-26T13:53:44.330Z,7.10
2023-01-26T13:56:32.035Z,7.00
2023-01-26T13:59:06.910Z,7.00
2023-01-26T14:01:39.898Z,7.10
2023-01-26T14:04:12.332Z,7.10
2023-01-26T14:06:41.992Z,7.10
2023-01-26T14:09:12.443Z,7.10
2023-01-26T14:11:40.157Z,7.10
2023-01-26T14:14:28.487Z,7.10
2023-01-26T14:16:58.494Z,7.10
2023-01-26T14:19:27.818Z,7.10
2023-01-26T14:22:00.431Z,7.00
2023-01-26T14:24:39.654Z,7.10
2023-01-26T14:27:23.475Z,7.10
2023-01-26T14:29:51.017Z,7.10
2023-01-26T14:32:18.616Z,7.10
2023-01-26T14:34:58.668Z,7.10
2023-01-26T14:37:28.137Z,7.10
2023-01-26T14:40:20.420Z,7.00
2023-01-26T14:42:52.525Z,7.10
2023-01-26T14:45:33.845Z,7.10
2023-01-26T14:48:07.682Z,7.00
2023-01-26T14:50:37.182Z,7.00
2023-01-26T14:53:06.701Z,7.20
2023-01-26T14:55:36.445Z,7.10
2023-01-26T14:58:19.141Z,7.10
2023-01-26T15:00:50.661Z,7.20
2023-01-26T15:03:24.529Z,7.20
2023-01-26T15:06:06.316Z,7.20
2023-01-26T15:08:40.995Z,7.10
2023-01-26T15:11:28.689Z,7.00
2023-01-26T15:13:56.625Z,7.10
2023-01-26T15:16:27.806Z,7.00
2023-01-26T15:19:06.861Z,6.70
2023-01-26T15:21:44.299Z,6.70
2023-01-26T15:24:14.906Z,6.70
2023-01-26T15:26:43.140Z,6.50
2023-01-26T15:29:31.341Z,6.50
2023-01-26T15:31:59.329Z,6.50
2023-01-26T15:34:36.355Z,6.50
2023-01-26T15:37:24.939Z,6.40
2023-01-26T15:39:52.482Z,6.30
2023-01-26T15:42:26.967Z,6.40
2023-01-26T15:44:54.609Z,6.40
2023-01-26T15:47:22.064Z,6.50
2023-01-26T15:49:49.667Z,6.30
2023-01-26T15:52:20.292Z,6.30
2023-01-26T15:54:47.845Z,6.30
2023-01-26T15:57:15.271Z,6.30
2023-01-26T15:59:42.919Z,6.20
2023-01-26T16:02:18.425Z,6.30
2023-01-26T16:04:46.805Z,6.20
2023-01-26T16:07:18.715Z,6.20
2023-01-26T16:09:48.328Z,6.10
2023-01-26T16:12:33.285Z,6.10
2023-01-26T16:15:00.963Z,5.90
2023-01-26T16:17:28.450Z,6.00
2023-01-26T16:19:55.975Z,5.90
2023-01-26T16:22:23.508Z,5.90
2023-01-26T16:24:51.024Z,5.90
2023-01-26T16:27:19.580Z,6.00
2023-01-26T16:29:47.126Z,5.90
2023-01-26T16:32:30.061Z,5.90
2023-01-26T16:34:57.689Z,6.00
2023-01-26T16:37:25.188Z,5.90
2023-01-26T16:39:52.760Z,5.80
2023-01-26T16:42:21.733Z,5.70
2023-01-26T16:44:50.044Z,5.70
2023-01-26T16:47:17.649Z,5.60
2023-01-26T16:49:45.076Z,5.70
2023-01-26T16:52:12.805Z,5.50
2023-01-26T16:54:40.377Z,5.50
2023-01-26T16:57:09.057Z,5.60
2023-01-26T16:59:36.517Z,5.60
2023-01-26T17:02:04.166Z,5.50
2023-01-26T17:04:31.653Z,5.50
2023-01-26T17:06:59.172Z,5.40
2023-01-26T17:09:26.718Z,5.30
2023-01-26T17:11:54.293Z,5.30
2023-01-26T17:14:21.831Z,5.30
2023-01-26T17:16:49.396Z,5.30
2023-01-26T17:19:16.948Z,5.30
2023-01-26T17:21:44.522Z,5.30
2023-01-26T17:24:12.151Z,5.30
2023-01-26T17:26:40.142Z,5.40
2023-01-26T17:29:08.841Z,5.30
2023-01-26T17:31:36.504Z,5.30
2023-01-26T17:34:03.960Z,5.20
2023-01-26T17:36:31.453Z,5.40
2023-01-26T17:38:58.934Z,5.40
2023-01-26T17:41:26.689Z,5.40
2023-01-26T17:43:54.164Z,5.40
2023-01-26T17:46:21.930Z,5.30
2023-01-26T17:48:50.541Z,5.30
2023-01-26T17:51:20.426Z,5.30
2023-01-26T17:53:52.457Z,5.40
2023-01-26T17:56:21.397Z,5.40
2023-01-26T17:58:53.954Z,5.30
2023-01-26T18:01:24.236Z,5.30
2023-01-26T18:03:53.707Z,5.30
2023-01-26T18:06:21.575Z,5.30
2023-01-26T18:08:49.237Z,5.10
2023-01-26T18:11:17.206Z,5.20
2023-01-26T18:13:44.829Z,5.20
2023-01-26T18:16:16.161Z,5.10
2023-01-26T18:18:43.893Z,5.00
2023-01-26T18:21:23.152Z,5.00
2023-01-26T18:23:54.245Z,5.10
2023-01-26T18:26:24.508Z,5.00
2023-01-26T18:28:52.493Z,5.00
2023-01-26T18:31:31.916Z,5.00
2023-01-26T18:34:00.992Z,5.00
2023-01-26T18:36:29.227Z,4.90
2023-01-26T18:39:02.233Z,5.00
2023-01-26T18:41:30.704Z,4.90
2023-01-26T18:43:58.555Z,4.90
2023-01-26T18:46:28.290Z,4.90
2023-01-26T18:49:00.795Z,4.90
2023-01-26T18:51:30.923Z,4.90
2023-01-26T18:53:58.900Z,4.80
2023-01-26T18:56:26.773Z,4.80
2023-01-26T18:58:55.212Z,4.90
2023-01-26T19:01:23.552Z,4.80
2023-01-26T19:03:55.806Z,4.90
2023-01-26T19:06:25.243Z,4.80
2023-01-26T19:08:59.338Z,4.90
2023-01-26T19:11:28.109Z,4.70
2023-01-26T19:13:56.096Z,4.60
2023-01-26T19:16:23.894Z,4.70
2023-01-26T19:18:52.687Z,4.70
2023-01-26T19:21:21.894Z,4.60
2023-01-26T19:23:49.466Z,4.70
2023-01-26T19:26:19.660Z,4.70
2023-01-26T19:28:50.645Z,4.70
2023-01-26T19:31:19.549Z,4.60
2023-01-26T19:33:51.602Z,4.60
2023-01-26T19:36:19.524Z,4.70
2023-01-26T19:38:47.056Z,4.70
2023-01-26T19:41:14.905Z,4.70
2023-01-26T19:43:42.768Z,4.60
2023-01-26T19:46:12.962Z,4.60
2023-01-26T19:48:40.950Z,4.60
2023-01-26T19:51:12.151Z,4.60
2023-01-26T19:53:43.190Z,4.50
2023-01-26T19:56:17.260Z,4.50
2023-01-26T19:58:52.604Z,4.50
2023-01-26T20:01:20.900Z,4.40
2023-01-26T20:04:00.125Z,4.40
2023-01-26T20:06:30.059Z,4.30
2023-01-26T20:08:58.646Z,4.40
2023-01-26T20:11:29.016Z,4.40
2023-01-26T20:14:01.390Z,4.70
2023-01-26T20:16:29.936Z,4.40
2023-01-26T20:18:59.327Z,4.40
2023-01-26T20:21:28.371Z,4.30
2023-01-26T20:23:56.445Z,4.30
2023-01-26T20:26:26.355Z,4.40
2023-01-26T20:28:56.881Z,4.30
2023-01-26T20:31:26.998Z,4.30
2023-01-26T20:33:55.086Z,4.40
2023-01-26T20:36:25.587Z,4.30
2023-01-26T20:38:53.669Z,4.40
2023-01-26T20:41:24.305Z,4.30
2023-01-26T20:43:59.719Z,4.40
2023-01-26T20:46:40.096Z,4.40
2023-01-26T20:49:11.062Z,4.50
2023-01-26T20:51:39.566Z,4.40
2023-01-26T20:54:07.701Z,4.40
2023-01-26T20:56:35.691Z,4.40
2023-01-26T20:59:04.393Z,4.50
2023-01-26T21:01:33.927Z,4.40
2023-01-26T21:04:02.268Z,4.50
2023-01-26T21:06:30.521Z,4.60
2023-01-26T21:08:59.757Z,4.50
2023-01-26T21:11:30.416Z,4.50
2023-01-26T21:14:00.669Z,4.50
2023-01-26T21:16:29.471Z,4.40
2023-01-26T21:18:57.806Z,4.50
2023-01-26T21:21:25.427Z,4.40
2023-01-26T21:23:53.063Z,4.40
2023-01-26T21:26:23.161Z,4.30
2023-01-26T21:28:55.840Z,4.30
2023-01-26T21:31:25.528Z,4.40
2023-01-26T21:33:53.962Z,4.40
2023-01-26T21:36:24.008Z,4.40
2023-01-26T21:38:52.654Z,4.20
2023-01-26T21:41:41.164Z,4.20
2023-01-26T21:44:20.785Z,4.20
2023-01-26T21:46:50.699Z,4.20
2023-01-26T21:49:18.255Z,4.10
2023-01-26T21:52:04.181Z,4.10
2023-01-26T21:54:32.572Z,4.10
2023-01-26T21:57:01.764Z,4.10
2023-01-26T21:59:30.123Z,4.20
2023-01-26T22:01:58.735Z,4.10
2023-01-26T22:04:31.043Z,4.20
2023-01-26T22:06:59.815Z,4.00
2023-01-26T22:09:27.532Z,3.90
2023-01-26T22:11:54.999Z,3.90
2023-01-26T22:14:26.188Z,3.90
2023-01-26T22:16:53.907Z,3.90
2023-01-26T22:19:21.469Z,3.90
2023-01-26T22:21:49.062Z,3.90
2023-01-26T22:24:18.164Z,4.00
2023-01-26T22:26:45.831Z,4.10
2023-01-26T22:29:13.271Z,3.90
2023-01-26T22:31:41.879Z,4.00
2023-01-26T22:34:11.477Z,4.00
2023-01-26T22:36:39.433Z,3.90
2023-01-26T22:39:07.085Z,4.00
2023-01-26T22:41:35.913Z,3.90
2023-01-26T22:44:03.812Z,3.90
2023-01-26T22:46:32.031Z,4.00
2023-01-26T22:49:00.086Z,4.00
2023-01-26T22:51:30.692Z,3.80
2023-01-26T22:53:59.502Z,4.00
2023-01-26T22:56:27.620Z,3.90
2023-01-26T22:58:59.507Z,3.90
2023-01-26T23:01:32.759Z,3.90
2023-01-26T23:04:01.510Z,3.90
2023-01-26T23:06:29.161Z,3.70
2023-01-26T23:08:58.381Z,3.80
2023-01-26T23:11:28.830Z,3.80
2023-01-26T23:13:58.799Z,3.80
2023-01-26T23:16:26.748Z,3.70
2023-01-26T23:18:56.298Z,3.60
2023-01-26T23:21:24.650Z,3.70
2023-01-26T23:23:52.258Z,3.70
2023-01-26T23:26:20.595Z,3.70
2023-01-26T23:28:48.583Z,3.70
2023-01-26T23:31:17.282Z,3.70
2023-01-26T23:33:45.247Z,3.70
2023-01-26T23:36:14.043Z,3.70
2023-01-26T23:38:41.705Z,3.80
2023-01-26T23:41:09.204Z,3.80
2023-01-26T23:43:36.862Z,3.90
2023-01-26T23:46:06.417Z,3.70
2023-01-26T23:48:34.102Z,3.60
2023-01-26T23:51:06.155Z,3.70
2023-01-26T23:53:34.205Z,3.60
2023-01-26T23:56:14.254Z,3.70
2023-01-26T23:58:41.946Z,3.60
